createdAt,value
2019-03-04T00:00:03.074Z,929.44
2019-03-04T00:01:04.490Z,929.36
2019-03-04T00:02:05.180Z,929.35
2019-03-04T00:03:05.710Z,929.4
2019-03-04T00:04:06.120Z,929.39
2019-03-04T00:05:06.648Z,929.35
2019-03-04T00:06:07.064Z,929.35
2019-03-04T00:07:08.231Z,929.3
2019-03-04T00:08:09.204Z,929.22
2019-03-04T00:09:09.623Z,929.22
2019-03-04T00:10:10.758Z,929.16
2019-03-04T00:11:11.007Z,929.11
2019-03-04T00:12:11.431Z,929.13
2019-03-04T00:13:11.849Z,929.1
2019-03-04T00:14:12.262Z,929.19
2019-03-04T00:15:13.263Z,929.11
2019-03-04T00:16:13.686Z,929.03
2019-03-04T00:17:14.260Z,928.98
2019-03-04T00:18:14.575Z,929.02
2019-03-04T00:19:15.260Z,929.08
2019-03-04T00:20:15.678Z,929.05
2019-03-04T00:21:16.922Z,928.94
2019-03-04T00:22:17.898Z,928.95
2019-03-04T00:23:18.593Z,928.93
2019-03-04T00:24:19.007Z,928.94
2019-03-04T00:25:19.266Z,928.93
2019-03-04T00:26:19.959Z,928.94
2019-03-04T00:27:20.780Z,928.91
2019-03-04T00:28:21.471Z,928.92
2019-03-04T00:29:21.885Z,928.94
2019-03-04T00:30:22.575Z,928.88
2019-03-04T00:31:22.986Z,928.86
2019-03-04T00:32:23.679Z,928.88
2019-03-04T00:33:24.093Z,928.91
2019-03-04T00:34:25.064Z,928.92
2019-03-04T00:35:25.473Z,928.9
2019-03-04T00:36:26.438Z,928.91
2019-03-04T00:37:27.549Z,928.92
2019-03-04T00:38:28.572Z,928.89
2019-03-04T00:39:29.264Z,928.89
2019-03-04T00:40:29.967Z,928.89
2019-03-04T00:41:30.936Z,928.86
2019-03-04T00:42:31.363Z,928.79
2019-03-04T00:43:32.054Z,928.81
2019-03-04T00:44:33.194Z,928.77
2019-03-04T00:45:33.887Z,928.76
2019-03-04T00:46:35.135Z,928.79
2019-03-04T00:47:36.248Z,928.8
2019-03-04T00:48:36.662Z,928.81
2019-03-04T00:49:37.353Z,928.77
2019-03-04T00:50:37.763Z,928.81
2019-03-04T00:51:38.900Z,928.71
2019-03-04T00:52:39.867Z,928.78
2019-03-04T00:53:40.594Z,928.79
2019-03-04T00:54:41.560Z,928.79
2019-03-04T00:55:42.695Z,928.79
2019-03-04T00:56:43.111Z,928.75
2019-03-04T00:57:43.510Z,928.76
2019-03-04T00:58:44.645Z,928.73
2019-03-04T00:59:45.337Z,928.73
2019-03-04T01:00:46.029Z,928.72
2019-03-04T01:01:47.005Z,928.72
2019-03-04T01:02:47.975Z,928.7
2019-03-04T01:03:48.386Z,928.7
2019-03-04T01:04:49.078Z,928.69
2019-03-04T01:05:49.773Z,928.68
2019-03-04T01:06:50.909Z,928.62
2019-03-04T01:07:51.177Z,928.64
2019-03-04T01:08:52.159Z,928.63
2019-03-04T01:09:52.410Z,928.62
2019-03-04T01:10:52.891Z,928.61
2019-03-04T01:11:53.585Z,928.65
2019-03-04T01:12:54.277Z,928.67
2019-03-04T01:13:54.968Z,928.62
2019-03-04T01:14:56.381Z,928.62
2019-03-04T01:15:56.630Z,928.61
2019-03-04T01:16:57.163Z,928.64
2019-03-04T01:17:58.011Z,928.6
2019-03-04T01:18:59.022Z,928.62
2019-03-04T01:19:59.436Z,928.61
2019-03-04T01:20:59.730Z,928.57
2019-03-04T01:22:00.160Z,928.59
2019-03-04T01:23:00.851Z,928.57
2019-03-04T01:24:01.109Z,928.61
2019-03-04T01:25:02.109Z,928.57
2019-03-04T01:26:03.249Z,928.53
2019-03-04T01:27:03.662Z,928.55
2019-03-04T01:28:04.485Z,928.47
2019-03-04T01:29:05.180Z,928.51
2019-03-04T01:30:05.595Z,928.48
2019-03-04T01:31:06.611Z,928.48
2019-03-04T01:32:07.855Z,928.47
2019-03-04T01:33:08.835Z,928.44
2019-03-04T01:34:09.687Z,928.4
2019-03-04T01:35:10.105Z,928.37
2019-03-04T01:36:10.516Z,928.33
2019-03-04T01:37:11.482Z,928.35
2019-03-04T01:38:11.948Z,928.38
2019-03-04T01:39:12.361Z,928.35
2019-03-04T01:40:13.328Z,928.3
2019-03-04T01:41:14.024Z,928.23
2019-03-04T01:42:14.719Z,928.22
2019-03-04T01:43:15.132Z,928.34
2019-03-04T01:44:15.826Z,928.35
2019-03-04T01:45:16.963Z,928.34
2019-03-04T01:46:17.672Z,928.29
2019-03-04T01:47:18.083Z,928.24
2019-03-04T01:48:18.742Z,928.24
2019-03-04T01:49:19.878Z,928.21
2019-03-04T01:50:20.570Z,928.2
2019-03-04T01:51:20.985Z,928.21
2019-03-04T01:52:22.129Z,928.18
2019-03-04T01:53:35.144Z,928.14
2019-03-04T01:54:36.240Z,928.11
2019-03-04T01:55:36.650Z,928.04
2019-03-04T01:56:37.337Z,928.04
2019-03-04T01:57:38.311Z,928.03
2019-03-04T01:58:39.447Z,927.99
2019-03-04T01:59:40.130Z,927.91
2019-03-04T02:00:40.815Z,927.87
2019-03-04T02:01:41.820Z,927.8
2019-03-04T02:02:42.515Z,927.76
2019-03-04T02:03:43.480Z,927.79
2019-03-04T02:04:44.296Z,927.8
2019-03-04T02:05:45.709Z,927.82
2019-03-04T02:06:46.396Z,927.78
2019-03-04T02:07:46.809Z,927.82
2019-03-04T02:08:47.232Z,927.8
2019-03-04T02:09:48.366Z,927.76
2019-03-04T02:10:48.776Z,927.7
2019-03-04T02:11:49.184Z,927.69
2019-03-04T02:12:49.908Z,927.62
2019-03-04T02:13:51.996Z,927.62
2019-03-04T02:14:52.823Z,927.58
2019-03-04T02:15:53.796Z,927.57
2019-03-04T02:16:54.591Z,927.52
2019-03-04T02:17:55.001Z,927.51
2019-03-04T02:18:55.695Z,927.53
2019-03-04T02:19:56.379Z,927.56
2019-03-04T02:20:57.350Z,927.48
2019-03-04T02:21:58.477Z,927.48
2019-03-04T02:22:59.172Z,927.47
2019-03-04T02:23:59.579Z,927.44
2019-03-04T02:25:00.988Z,927.42
2019-03-04T02:26:01.393Z,927.37
2019-03-04T02:27:02.082Z,927.38
2019-03-04T02:28:03.041Z,927.34
2019-03-04T02:29:04.005Z,927.36
2019-03-04T02:30:04.979Z,927.33
2019-03-04T02:31:06.328Z,927.36
2019-03-04T02:32:06.879Z,927.34
2019-03-04T02:33:07.684Z,927.27
2019-03-04T02:34:08.654Z,927.25
2019-03-04T02:35:09.245Z,927.27
2019-03-04T02:36:10.494Z,927.27
2019-03-04T02:37:11.750Z,927.22
2019-03-04T02:38:12.463Z,927.17
2019-03-04T02:39:13.001Z,927.17
2019-03-04T02:40:13.529Z,927.12
2019-03-04T02:41:14.613Z,927.08
2019-03-04T02:42:14.857Z,927.05
2019-03-04T02:43:15.399Z,927.04
2019-03-04T02:44:15.640Z,927.05
2019-03-04T02:45:16.443Z,927.07
2019-03-04T02:46:17.455Z,927.02
2019-03-04T02:47:18.442Z,927.03
2019-03-04T02:48:18.985Z,927.06
2019-03-04T02:49:19.260Z,927.02
2019-03-04T02:50:20.332Z,927.04
2019-03-04T02:51:21.295Z,926.91
2019-03-04T02:52:21.639Z,926.98
2019-03-04T02:53:22.603Z,926.9
2019-03-04T02:54:22.866Z,926.9
2019-03-04T02:55:23.449Z,926.82
2019-03-04T02:56:24.032Z,926.85
2019-03-04T02:57:24.841Z,926.89
2019-03-04T02:58:25.666Z,926.81
2019-03-04T02:59:26.226Z,926.75
2019-03-04T03:00:26.482Z,926.82
2019-03-04T03:01:27.545Z,926.8
2019-03-04T03:02:27.819Z,926.76
2019-03-04T03:03:28.788Z,926.72
2019-03-04T03:04:29.877Z,926.7
2019-03-04T03:05:30.846Z,926.67
2019-03-04T03:06:31.116Z,926.61
2019-03-04T03:07:31.389Z,926.68
2019-03-04T03:08:32.455Z,926.61
2019-03-04T03:09:33.014Z,926.61
2019-03-04T03:10:33.556Z,926.55
2019-03-04T03:11:33.808Z,926.55
2019-03-04T03:12:34.339Z,926.58
2019-03-04T03:13:35.239Z,926.53
2019-03-04T03:14:36.340Z,926.52
2019-03-04T03:15:36.700Z,926.54
2019-03-04T03:16:37.702Z,926.53
2019-03-04T03:17:38.719Z,926.49
2019-03-04T03:18:39.717Z,926.44
2019-03-04T03:19:40.036Z,926.36
2019-03-04T03:20:40.557Z,926.44
2019-03-04T03:21:41.592Z,926.37
2019-03-04T03:22:41.953Z,926.25
2019-03-04T03:23:42.796Z,926.22
2019-03-04T03:24:43.599Z,926.25
2019-03-04T03:25:44.708Z,926.22
2019-03-04T03:26:44.969Z,926.18
2019-03-04T03:27:45.957Z,926.12
2019-03-04T03:28:47.051Z,926.11
2019-03-04T03:29:47.592Z,926.1
2019-03-04T03:30:48.634Z,926.03
2019-03-04T03:31:49.821Z,926.04
2019-03-04T03:32:51.283Z,926.02
2019-03-04T03:33:51.802Z,926.01
2019-03-04T03:34:52.970Z,925.9
2019-03-04T03:35:53.850Z,925.87
2019-03-04T03:36:54.399Z,925.92
2019-03-04T03:37:55.377Z,925.94
2019-03-04T03:38:56.813Z,925.9
2019-03-04T03:39:57.087Z,925.78
2019-03-04T03:40:57.787Z,925.81
2019-03-04T03:41:58.610Z,925.84
2019-03-04T03:42:59.600Z,925.82
2019-03-04T03:44:00.264Z,925.83
2019-03-04T03:45:01.511Z,925.83
2019-03-04T03:46:02.202Z,925.8
2019-03-04T03:47:02.827Z,925.88
2019-03-04T03:48:03.551Z,925.82
2019-03-04T03:49:04.360Z,925.77
2019-03-04T03:50:05.090Z,925.74
2019-03-04T03:51:05.904Z,925.76
2019-03-04T03:52:06.765Z,925.77
2019-03-04T03:53:07.464Z,925.84
2019-03-04T03:54:07.716Z,925.77
2019-03-04T03:55:08.976Z,925.83
2019-03-04T03:56:09.216Z,925.68
2019-03-04T03:57:10.394Z,925.69
2019-03-04T03:58:10.936Z,925.62
2019-03-04T03:59:11.901Z,925.67
2019-03-04T04:00:12.904Z,925.71
2019-03-04T04:01:13.227Z,925.68
2019-03-04T04:02:13.746Z,925.65
2019-03-04T04:03:15.056Z,925.54
2019-03-04T04:04:15.300Z,925.53
2019-03-04T04:05:15.828Z,925.44
2019-03-04T04:06:16.872Z,925.46
2019-03-04T04:07:17.419Z,925.44
2019-03-04T04:08:17.986Z,925.46
2019-03-04T04:09:18.585Z,925.48
2019-03-04T04:10:18.833Z,925.48
2019-03-04T04:11:19.915Z,925.46
2019-03-04T04:12:20.931Z,925.37
2019-03-04T04:13:21.223Z,925.3
2019-03-04T04:14:22.240Z,925.32
2019-03-04T04:15:22.761Z,925.38
2019-03-04T04:16:23.558Z,925.39
2019-03-04T04:17:24.367Z,925.35
2019-03-04T04:18:24.793Z,925.33
2019-03-04T04:19:26.114Z,925.32
2019-03-04T04:20:27.101Z,925.31
2019-03-04T04:21:27.801Z,925.25
2019-03-04T04:22:28.109Z,925.23
2019-03-04T04:23:29.082Z,925.33
2019-03-04T04:24:29.639Z,925.32
2019-03-04T04:25:30.890Z,925.32
2019-03-04T04:26:31.311Z,925.35
2019-03-04T04:27:31.570Z,925.35
2019-03-04T04:28:32.263Z,925.29
2019-03-04T04:29:33.021Z,925.27
2019-03-04T04:30:33.274Z,925.26
2019-03-04T04:31:34.698Z,925.26
2019-03-04T04:32:34.933Z,925.28
2019-03-04T04:33:35.674Z,925.26
2019-03-04T04:34:36.784Z,925.24
2019-03-04T04:35:37.110Z,925.22
2019-03-04T04:36:38.206Z,925.24
2019-03-04T04:37:39.337Z,925.21
2019-03-04T04:38:40.043Z,925.19
2019-03-04T04:39:41.177Z,925.16
2019-03-04T04:40:42.309Z,925.21
2019-03-04T04:41:43.269Z,925.19
2019-03-04T04:42:44.402Z,925.2
2019-03-04T04:43:45.367Z,925.19
2019-03-04T04:44:46.063Z,925.22
2019-03-04T04:45:47.196Z,925.27
2019-03-04T04:46:48.025Z,925.18
2019-03-04T04:47:48.713Z,925.18
2019-03-04T04:48:49.122Z,925.11
2019-03-04T04:49:49.805Z,925.11
2019-03-04T04:50:50.211Z,925.01
2019-03-04T04:51:51.344Z,925.02
2019-03-04T04:52:51.754Z,924.94
2019-03-04T04:53:52.723Z,925
2019-03-04T04:54:53.130Z,925.08
2019-03-04T04:55:53.538Z,925.02
2019-03-04T04:56:53.925Z,924.91
2019-03-04T04:57:54.615Z,924.9
2019-03-04T04:58:55.321Z,924.79
2019-03-04T04:59:55.726Z,924.73
2019-03-04T05:00:56.410Z,924.76
2019-03-04T05:01:56.933Z,924.75
2019-03-04T05:02:57.631Z,924.65
2019-03-04T05:03:58.334Z,924.68
2019-03-04T05:04:59.036Z,924.69
2019-03-04T05:05:59.862Z,924.72
2019-03-04T05:07:00.401Z,924.67
2019-03-04T05:08:01.530Z,924.65
2019-03-04T05:09:02.490Z,924.6
2019-03-04T05:10:03.173Z,924.54
2019-03-04T05:11:03.581Z,924.6
2019-03-04T05:12:03.985Z,924.65
2019-03-04T05:13:04.393Z,924.59
2019-03-04T05:14:05.364Z,924.59
2019-03-04T05:15:06.339Z,924.49
2019-03-04T05:16:06.580Z,924.51
2019-03-04T05:17:07.718Z,924.54
2019-03-04T05:18:08.410Z,924.46
2019-03-04T05:19:09.547Z,924.52
2019-03-04T05:20:10.230Z,924.52
2019-03-04T05:21:10.641Z,924.54
2019-03-04T05:22:10.879Z,924.54
2019-03-04T05:23:11.586Z,924.52
2019-03-04T05:24:12.718Z,924.4
2019-03-04T05:25:13.425Z,924.24
2019-03-04T05:26:14.114Z,924.39
2019-03-04T05:27:14.930Z,924.4
2019-03-04T05:28:15.622Z,924.39
2019-03-04T05:29:16.029Z,924.27
2019-03-04T05:30:16.714Z,924.33
2019-03-04T05:31:17.703Z,924.29
2019-03-04T05:32:18.111Z,924.14
2019-03-04T05:33:19.084Z,924.08
2019-03-04T05:34:20.221Z,924.14
2019-03-04T05:35:20.915Z,924.12
2019-03-04T05:36:22.048Z,924.09
2019-03-04T05:37:23.087Z,924.1
2019-03-04T05:38:23.770Z,924.11
2019-03-04T05:39:24.458Z,924.06
2019-03-04T05:40:25.475Z,924.06
2019-03-04T05:41:26.162Z,924.01
2019-03-04T05:42:27.291Z,923.97
2019-03-04T05:43:28.707Z,923.95
2019-03-04T05:44:29.394Z,923.93
2019-03-04T05:45:30.522Z,923.97
2019-03-04T05:46:31.656Z,923.95
2019-03-04T05:47:32.347Z,923.92
2019-03-04T05:48:33.046Z,923.88
2019-03-04T05:49:33.290Z,923.89
2019-03-04T05:50:33.544Z,923.92
2019-03-04T05:51:34.678Z,923.86
2019-03-04T05:52:35.085Z,923.75
2019-03-04T05:53:35.770Z,923.82
2019-03-04T05:54:36.732Z,923.81
2019-03-04T05:55:37.137Z,923.77
2019-03-04T05:56:37.545Z,923.78
2019-03-04T05:57:38.374Z,923.74
2019-03-04T05:58:39.338Z,923.73
2019-03-04T05:59:40.024Z,923.73
2019-03-04T06:00:41.269Z,923.72
2019-03-04T06:01:41.687Z,923.61
2019-03-04T06:02:42.657Z,923.69
2019-03-04T06:03:43.067Z,923.67
2019-03-04T06:04:43.477Z,923.65
2019-03-04T06:05:44.173Z,923.67
2019-03-04T06:06:44.858Z,923.65
2019-03-04T06:07:45.956Z,923.64
2019-03-04T06:08:46.646Z,923.61
2019-03-04T06:09:47.055Z,923.58
2019-03-04T06:10:47.466Z,923.59
2019-03-04T06:11:48.434Z,923.55
2019-03-04T06:12:49.126Z,923.59
2019-03-04T06:13:49.579Z,923.54
2019-03-04T06:14:50.748Z,923.58
2019-03-04T06:15:51.186Z,923.49
2019-03-04T06:16:52.148Z,923.46
2019-03-04T06:17:53.256Z,923.46
2019-03-04T06:18:54.264Z,923.42
2019-03-04T06:19:55.230Z,923.41
2019-03-04T06:20:55.916Z,923.38
2019-03-04T06:21:56.160Z,923.36
2019-03-04T06:22:56.849Z,923.3
2019-03-04T06:23:57.546Z,923.33
2019-03-04T06:24:58.678Z,923.35
2019-03-04T06:25:59.722Z,923.37
2019-03-04T06:27:00.662Z,923.34
2019-03-04T06:28:01.054Z,923.32
2019-03-04T06:29:01.776Z,923.26
2019-03-04T06:30:02.469Z,923.29
2019-03-04T06:31:03.165Z,923.27
2019-03-04T06:32:03.854Z,923.34
2019-03-04T06:33:04.266Z,923.31
2019-03-04T06:34:04.956Z,923.31
2019-03-04T06:35:05.641Z,923.34
2019-03-04T06:36:07.055Z,923.3
2019-03-04T06:37:08.191Z,923.26
2019-03-04T06:38:09.299Z,923.26
2019-03-04T06:39:09.548Z,923.24
2019-03-04T06:40:10.687Z,923.2
2019-03-04T06:41:11.097Z,923.15
2019-03-04T06:42:11.510Z,923.12
2019-03-04T06:43:11.924Z,923.14
2019-03-04T06:44:12.651Z,923.1
2019-03-04T06:45:13.344Z,923.01
2019-03-04T06:46:13.762Z,923
2019-03-04T06:47:14.178Z,922.98
2019-03-04T06:48:14.850Z,922.96
2019-03-04T06:49:15.543Z,922.93
2019-03-04T06:50:15.961Z,922.91
2019-03-04T06:51:17.099Z,922.89
2019-03-04T06:52:18.233Z,922.93
2019-03-04T06:53:18.645Z,922.89
2019-03-04T06:54:19.061Z,922.89
2019-03-04T06:55:19.530Z,922.89
2019-03-04T06:56:20.244Z,922.88
2019-03-04T06:57:29.000Z,922.89
2019-03-04T06:57:32.997Z,922.89
2019-03-04T06:58:33.775Z,922.84
2019-03-04T06:59:34.577Z,922.88
2019-03-04T07:00:34.962Z,922.84
2019-03-04T07:01:35.637Z,922.85
2019-03-04T07:02:35.825Z,922.83
2019-03-04T07:03:37.028Z,922.79
2019-03-04T07:04:38.180Z,922.81
2019-03-04T07:05:38.579Z,922.68
2019-03-04T07:06:39.713Z,922.69
2019-03-04T07:07:40.414Z,922.65
2019-03-04T07:08:41.233Z,922.63
2019-03-04T07:09:42.648Z,922.67
2019-03-04T07:10:43.617Z,922.57
2019-03-04T07:11:44.756Z,922.63
2019-03-04T07:12:45.450Z,922.53
2019-03-04T07:13:46.594Z,922.5
2019-03-04T07:14:47.293Z,922.42
2019-03-04T07:15:47.980Z,922.45
2019-03-04T07:16:48.691Z,922.4
2019-03-04T07:17:49.670Z,922.38
2019-03-04T07:18:50.491Z,922.38
2019-03-04T07:19:51.188Z,922.38
2019-03-04T07:20:51.602Z,922.4
2019-03-04T07:21:52.292Z,922.37
2019-03-04T07:22:52.716Z,922.38
2019-03-04T07:23:53.687Z,922.35
2019-03-04T07:24:54.392Z,922.32
2019-03-04T07:25:54.805Z,922.36
2019-03-04T07:26:55.802Z,922.36
2019-03-04T07:27:56.286Z,922.32
2019-03-04T07:28:57.408Z,922.36
2019-03-04T07:29:57.823Z,922.31
2019-03-04T07:30:58.952Z,922.19
2019-03-04T07:32:00.090Z,922.12
2019-03-04T07:33:00.792Z,922.29
2019-03-04T07:34:01.483Z,922.33
2019-03-04T07:35:02.177Z,922.24
2019-03-04T07:36:02.873Z,922.18
2019-03-04T07:37:03.905Z,922.24
2019-03-04T07:38:04.327Z,922.33
2019-03-04T07:39:05.042Z,922.27
2019-03-04T07:40:05.738Z,922.23
2019-03-04T07:41:05.988Z,922.13
2019-03-04T07:42:08.396Z,922.16
2019-03-04T07:42:18.895Z,922.21
2019-03-04T07:43:19.762Z,922.18
2019-03-04T07:44:20.865Z,922.23
2019-03-04T07:45:21.845Z,922.14
2019-03-04T07:46:22.272Z,922.18
2019-03-04T07:47:22.964Z,922.15
2019-03-04T07:48:23.953Z,922.14
2019-03-04T07:49:24.927Z,922.22
2019-03-04T07:50:26.667Z,922.18
2019-03-04T07:50:37.267Z,922.05
2019-03-04T07:51:37.972Z,922.09
2019-03-04T07:52:38.230Z,922.1
2019-03-04T07:53:46.929Z,922.17
2019-03-04T07:53:50.806Z,922.2
2019-03-04T07:54:51.785Z,922.22
2019-03-04T07:55:52.763Z,922.33
2019-03-04T07:56:54.187Z,922.35
2019-03-04T07:57:54.611Z,922.4
2019-03-04T07:58:55.805Z,922.34
2019-03-04T07:59:56.787Z,922.38
2019-03-04T08:00:57.210Z,922.47
2019-03-04T08:01:58.470Z,922.37
2019-03-04T08:02:59.619Z,922.42
2019-03-04T08:04:00.043Z,922.36
2019-03-04T08:05:00.884Z,922.47
2019-03-04T08:06:01.594Z,922.43
2019-03-04T08:07:04.487Z,922.43
2019-03-04T08:07:15.486Z,922.43
2019-03-04T08:08:15.402Z,922.37
2019-03-04T08:09:16.384Z,922.36
2019-03-04T08:10:17.092Z,922.39
2019-03-04T08:11:17.797Z,922.5
2019-03-04T08:12:18.782Z,922.43
2019-03-04T08:13:19.213Z,922.63
2019-03-04T08:14:19.913Z,922.44
2019-03-04T08:15:20.615Z,922.28
2019-03-04T08:16:21.318Z,922.35
2019-03-04T08:17:23.954Z,922.29
2019-03-04T08:18:23.865Z,922.27
2019-03-04T08:19:24.571Z,922.3
2019-03-04T08:20:26.368Z,922.22
2019-03-04T08:21:26.445Z,922.26
2019-03-04T08:22:26.888Z,922.27
2019-03-04T08:23:27.869Z,922.28
2019-03-04T08:24:28.853Z,922.34
2019-03-04T08:25:30.260Z,922.41
2019-03-04T08:26:30.448Z,922.38
2019-03-04T08:27:30.873Z,922.43
2019-03-04T08:28:31.712Z,922.38
2019-03-04T08:29:32.136Z,922.37
2019-03-04T08:30:33.280Z,922.48
2019-03-04T08:31:34.093Z,922.46
2019-03-04T08:32:34.519Z,922.59
2019-03-04T08:33:35.227Z,922.54
2019-03-04T08:34:35.660Z,922.5
2019-03-04T08:35:36.355Z,922.42
2019-03-04T08:36:37.498Z,922.56
2019-03-04T08:37:37.921Z,922.54
2019-03-04T08:38:38.486Z,922.53
2019-03-04T08:39:38.923Z,922.49
2019-03-04T08:40:39.947Z,922.5
2019-03-04T08:41:40.482Z,922.48
2019-03-04T08:42:40.913Z,922.51
2019-03-04T08:43:41.889Z,922.45
2019-03-04T08:44:42.311Z,922.44
2019-03-04T08:45:43.461Z,922.43
2019-03-04T08:46:44.449Z,922.45
2019-03-04T08:47:45.594Z,922.49
2019-03-04T08:48:46.211Z,922.53
2019-03-04T08:49:46.926Z,922.56
2019-03-04T08:50:48.179Z,922.63
2019-03-04T08:51:48.606Z,922.69
2019-03-04T08:52:49.332Z,922.67
2019-03-04T08:53:50.317Z,922.59
2019-03-04T08:54:51.464Z,922.62
2019-03-04T08:55:52.614Z,922.61
2019-03-04T08:56:52.870Z,922.69
2019-03-04T08:57:05.007Z,922.7
2019-03-04T08:58:07.477Z,922.74
2019-03-04T08:58:18.220Z,922.78
2019-03-04T08:59:18.258Z,922.93
2019-03-04T09:00:19.520Z,923.33
2019-03-04T09:01:19.946Z,923.87
2019-03-04T09:02:20.930Z,924.04
2019-03-04T09:03:22.079Z,923.92
2019-03-04T09:04:23.079Z,924.01
2019-03-04T09:05:23.815Z,923.7
2019-03-04T09:06:24.556Z,923.63
2019-03-04T09:07:25.303Z,923.61
2019-03-04T09:08:26.485Z,923.53
2019-03-04T09:09:27.835Z,923.49
2019-03-04T09:11:32.728Z,923.4
2019-03-04T09:12:35.756Z,923.34
2019-03-04T09:13:34.251Z,923.27
2019-03-04T09:14:35.025Z,923.21
2019-03-04T09:15:36.285Z,923.27
2019-03-04T09:16:37.059Z,923.23
2019-03-04T09:19:39.855Z,923.25
2019-03-04T09:20:39.982Z,923.32
2019-03-04T09:21:41.093Z,923.31
2019-03-04T09:22:41.517Z,923.38
2019-03-04T09:23:42.662Z,923.39
2019-03-04T09:24:43.356Z,923.27
2019-03-04T09:25:44.332Z,923.31
2019-03-04T09:26:45.031Z,923.37
2019-03-04T09:27:47.366Z,923.31
2019-03-04T09:27:57.859Z,923.28
2019-03-04T09:28:58.170Z,923.19
2019-03-04T09:29:58.865Z,923.22
2019-03-04T09:30:59.463Z,923.12
2019-03-04T09:32:00.485Z,923.11
2019-03-04T09:33:01.626Z,923.26
2019-03-04T09:34:03.015Z,923.12
2019-03-04T09:35:03.273Z,923.28
2019-03-04T09:36:03.976Z,923.28
2019-03-04T09:37:05.266Z,923.18
2019-03-04T09:38:05.678Z,923.3
2019-03-04T09:39:06.813Z,923.21
2019-03-04T09:40:07.521Z,923.31
2019-03-04T09:41:07.940Z,923.25
2019-03-04T09:42:08.646Z,923.28
2019-03-04T09:43:09.403Z,923.27
2019-03-04T09:44:10.546Z,923.19
2019-03-04T09:45:11.560Z,923.17
2019-03-04T09:46:11.823Z,923.13
2019-03-04T09:47:12.529Z,923.14
2019-03-04T09:48:13.675Z,923.1
2019-03-04T09:49:16.055Z,923.13
2019-03-04T09:49:27.554Z,923.16
2019-03-04T09:49:40.937Z,923.12
2019-03-04T09:49:54.174Z,923.12
2019-03-04T09:50:06.359Z,923.1
2019-03-04T09:50:18.485Z,923.12
2019-03-04T09:50:30.595Z,923.07
2019-03-04T09:51:31.415Z,923.14
2019-03-04T09:52:32.555Z,923.04
2019-03-04T09:53:40.301Z,923.07
2019-03-04T09:53:45.380Z,923.07
2019-03-04T09:54:45.793Z,923.07
2019-03-04T09:55:47.215Z,923.12
2019-03-04T09:56:47.986Z,923.03
2019-03-04T09:57:48.547Z,922.97
2019-03-04T09:58:49.524Z,922.97
2019-03-04T09:59:50.223Z,922.99
2019-03-04T10:00:50.950Z,922.94
2019-03-04T10:01:52.103Z,922.93
2019-03-04T10:02:52.522Z,922.94
2019-03-04T10:03:53.665Z,923.05
2019-03-04T10:04:54.505Z,923.01
2019-03-04T10:05:54.925Z,923.01
2019-03-04T10:06:55.902Z,922.98
2019-03-04T10:07:56.091Z,923.02
2019-03-04T10:08:56.793Z,923.12
2019-03-04T10:09:57.766Z,923.1
2019-03-04T10:10:58.460Z,923.13
2019-03-04T10:11:59.600Z,923.11
2019-03-04T10:13:00.856Z,923.12
2019-03-04T10:14:02.110Z,923.13
2019-03-04T10:15:09.161Z,923.09
2019-03-04T10:15:14.515Z,923.08
2019-03-04T10:16:19.299Z,923.12
2019-03-04T10:17:19.754Z,923.18
2019-03-04T10:18:20.172Z,923.12
2019-03-04T10:19:20.931Z,923.06
2019-03-04T10:20:21.925Z,923.15
2019-03-04T10:21:22.901Z,923.09
2019-03-04T10:22:23.632Z,923.12
2019-03-04T10:23:23.888Z,923.23
2019-03-04T10:24:25.035Z,923.27
2019-03-04T10:25:25.456Z,923.24
2019-03-04T10:26:26.570Z,923.21
2019-03-04T10:27:27.269Z,923.22
2019-03-04T10:28:27.576Z,923.3
2019-03-04T10:29:28.003Z,923.3
2019-03-04T10:30:28.422Z,923.25
2019-03-04T10:31:29.567Z,923.18
2019-03-04T10:32:29.989Z,923.31
2019-03-04T10:33:30.412Z,923.22
2019-03-04T10:34:32.702Z,923.39
2019-03-04T10:35:34.357Z,923.42
2019-03-04T10:35:45.730Z,923.31
2019-03-04T10:35:58.363Z,923.32
2019-03-04T10:36:59.545Z,923.38
2019-03-04T10:37:59.515Z,923.39
2019-03-04T10:39:00.218Z,923.36
2019-03-04T10:40:01.780Z,923.38
2019-03-04T10:41:02.212Z,923.43
2019-03-04T10:42:02.916Z,923.41
2019-03-04T10:43:03.337Z,923.41
2019-03-04T10:44:04.093Z,923.35
2019-03-04T10:45:04.800Z,923.39
2019-03-04T10:46:05.220Z,923.34
2019-03-04T10:47:05.778Z,923.36
2019-03-04T10:48:06.042Z,923.27
2019-03-04T10:49:06.751Z,923.28
2019-03-04T10:50:07.804Z,923.31
2019-03-04T10:51:08.506Z,923.16
2019-03-04T10:52:08.927Z,923.38
2019-03-04T10:53:09.903Z,923.38
2019-03-04T10:54:10.321Z,923.34
2019-03-04T10:55:11.018Z,923.32
2019-03-04T10:56:11.998Z,923.34
2019-03-04T10:57:13.003Z,923.35
2019-03-04T10:58:13.326Z,923.34
2019-03-04T10:59:13.851Z,923.37
2019-03-04T11:00:14.329Z,923.28
2019-03-04T11:01:15.623Z,923.46
2019-03-04T11:02:17.002Z,923.4
2019-03-04T11:03:18.151Z,923.52
2019-03-04T11:04:18.718Z,923.6
2019-03-04T11:05:20.162Z,923.56
2019-03-04T11:06:20.891Z,923.71
2019-03-04T11:07:21.309Z,923.6
2019-03-04T11:08:22.504Z,923.58
2019-03-04T11:09:23.486Z,923.64
2019-03-04T11:10:24.636Z,923.63
2019-03-04T11:11:30.456Z,923.69
2019-03-04T11:12:31.602Z,923.6
2019-03-04T11:13:32.315Z,923.3
2019-03-04T11:14:32.749Z,923.54
2019-03-04T11:15:33.889Z,923.64
2019-03-04T11:16:34.313Z,923.69
2019-03-04T11:17:35.417Z,923.65
2019-03-04T11:18:35.889Z,923.81
2019-03-04T11:19:37.033Z,923.85
2019-03-04T11:20:38.009Z,923.81
2019-03-04T11:21:39.151Z,923.93
2019-03-04T11:22:39.860Z,923.89
2019-03-04T11:23:40.282Z,923.85
2019-03-04T11:24:40.706Z,923.9
2019-03-04T11:25:41.848Z,923.8
2019-03-04T11:26:42.269Z,923.98
2019-03-04T11:27:42.895Z,924.12
2019-03-04T11:28:43.311Z,924.08
2019-03-04T11:29:43.777Z,923.97
2019-03-04T11:30:44.237Z,924.09
2019-03-04T11:31:45.398Z,924.14
2019-03-04T11:32:46.371Z,924.2
2019-03-04T11:33:48.120Z,924.16
2019-03-04T11:34:48.717Z,924.14
2019-03-04T11:35:49.700Z,924.11
2019-03-04T11:36:50.393Z,924.02
2019-03-04T11:37:51.219Z,924.13
2019-03-04T11:38:53.232Z,924.25
2019-03-04T11:39:53.036Z,924.13
2019-03-04T11:40:53.454Z,924.18
2019-03-04T11:41:54.151Z,924.06
2019-03-04T11:42:54.847Z,924.24
2019-03-04T11:43:55.267Z,924.39
2019-03-04T11:44:56.005Z,924.42
2019-03-04T11:45:56.482Z,924.14
2019-03-04T11:46:57.621Z,924.07
2019-03-04T11:47:58.301Z,924.27
2019-03-04T11:48:59.479Z,924.4
2019-03-04T11:49:59.902Z,924.38
2019-03-04T11:51:00.820Z,924.61
2019-03-04T11:52:01.516Z,924.51
2019-03-04T11:53:02.213Z,924.5
2019-03-04T11:54:04.833Z,924.35
2019-03-04T11:55:04.926Z,924.55
2019-03-04T11:56:05.347Z,924.57
2019-03-04T11:57:05.593Z,924.36
2019-03-04T11:58:06.441Z,924.63
2019-03-04T11:59:06.695Z,924.43
2019-03-04T12:00:07.122Z,924.63
2019-03-04T12:01:08.261Z,924.63
2019-03-04T12:02:08.674Z,924.74
2019-03-04T12:03:09.378Z,924.84
2019-03-04T12:04:09.791Z,924.85
2019-03-04T12:05:10.770Z,924.68
2019-03-04T12:06:11.184Z,924.98
2019-03-04T12:07:11.644Z,924.64
2019-03-04T12:08:11.904Z,924.69
2019-03-04T12:09:13.407Z,924.73
2019-03-04T12:10:14.435Z,924.87
2019-03-04T12:11:14.849Z,924.83
2019-03-04T12:11:37.754Z,924.74
2019-03-04T12:11:40.347Z,924.74
2019-03-04T12:12:41.074Z,924.82
2019-03-04T12:13:42.642Z,924.85
2019-03-04T12:14:43.679Z,924.83
2019-03-04T12:15:44.962Z,924.78
2019-03-04T12:16:45.931Z,924.86
2019-03-04T12:17:46.341Z,924.67
2019-03-04T12:18:47.316Z,924.87
2019-03-04T12:19:47.562Z,925
2019-03-04T12:20:48.119Z,924.79
2019-03-04T12:21:50.312Z,924.63
2019-03-04T12:22:51.678Z,924.8
2019-03-04T12:23:02.622Z,924.88
2019-03-04T12:24:03.026Z,924.7
2019-03-04T12:25:03.647Z,924.74
2019-03-04T12:26:04.793Z,924.76